sensor_id;sensor_type;location;lat;lon;timestamp;P1;durP1;ratioP1;P2;durP2;ratioP2
20348;SDS011;10332;50.208;18.988;2022-07-06T00:02:06;29.13;;;21.67;;
20348;SDS011;10332;50.208;18.988;2022-07-06T00:04:34;32.75;;;22.83;;
20348;SDS011;10332;50.208;18.988;2022-07-06T00:07:01;32.53;;;22.85;;
20348;SDS011;10332;50.208;18.988;2022-07-06T00:09:29;35.80;;;25.30;;
20348;SDS011;10332;50.208;18.988;2022-07-06T00:11:56;44.00;;;29.13;;
20348;SDS011;10332;50.208;18.988;2022-07-06T00:14:24;34.95;;;24.70;;
20348;SDS011;10332;50.208;18.988;2022-07-06T00:16:51;33.33;;;25.20;;
20348;SDS011;10332;50.208;18.988;2022-07-06T00:19:19;32.30;;;23.50;;
20348;SDS011;10332;50.208;18.988;2022-07-06T00:21:46;30.40;;;23.02;;
20348;SDS011;10332;50.208;18.988;2022-07-06T00:24:13;35.60;;;25.67;;
20348;SDS011;10332;50.208;18.988;2022-07-06T00:26:41;34.22;;;24.65;;
20348;SDS011;10332;50.208;18.988;2022-07-06T00:29:08;32.40;;;23.88;;
20348;SDS011;10332;50.208;18.988;2022-07-06T00:31:35;32.95;;;22.98;;
20348;SDS011;10332;50.208;18.988;2022-07-06T00:34:03;33.80;;;24.10;;
20348;SDS011;10332;50.208;18.988;2022-07-06T00:36:30;30.83;;;22.25;;
20348;SDS011;10332;50.208;18.988;2022-07-06T00:38:57;29.98;;;22.05;;
20348;SDS011;10332;50.208;18.988;2022-07-06T00:41:25;30.05;;;22.92;;
20348;SDS011;10332;50.208;18.988;2022-07-06T00:43:53;29.42;;;21.40;;
20348;SDS011;10332;50.208;18.988;2022-07-06T00:46:27;27.83;;;20.38;;
20348;SDS011;10332;50.208;18.988;2022-07-06T00:48:58;31.55;;;23.50;;
20348;SDS011;10332;50.208;18.988;2022-07-06T00:51:29;26.17;;;20.45;;
20348;SDS011;10332;50.208;18.988;2022-07-06T00:54:03;33.65;;;23.63;;
20348;SDS011;10332;50.208;18.988;2022-07-06T00:56:32;33.25;;;23.40;;
20348;SDS011;10332;50.208;18.988;2022-07-06T00:59:02;30.90;;;23.80;;
20348;SDS011;10332;50.208;18.988;2022-07-06T01:01:29;32.90;;;23.38;;
20348;SDS011;10332;50.208;18.988;2022-07-06T01:03:57;33.90;;;25.42;;
20348;SDS011;10332;50.208;18.988;2022-07-06T01:06:24;36.92;;;27.92;;
20348;SDS011;10332;50.208;18.988;2022-07-06T01:08:52;31.65;;;23.50;;
20348;SDS011;10332;50.208;18.988;2022-07-06T01:11:20;41.13;;;31.25;;
20348;SDS011;10332;50.208;18.988;2022-07-06T01:13:48;34.47;;;26.05;;
20348;SDS011;10332;50.208;18.988;2022-07-06T01:16:17;32.42;;;25.00;;
20348;SDS011;10332;50.208;18.988;2022-07-06T01:18:45;33.33;;;24.60;;
20348;SDS011;10332;50.208;18.988;2022-07-06T01:21:13;30.65;;;24.67;;
20348;SDS011;10332;50.208;18.988;2022-07-06T01:23:42;29.38;;;21.83;;
20348;SDS011;10332;50.208;18.988;2022-07-06T01:26:17;24.90;;;20.90;;
20348;SDS011;10332;50.208;18.988;2022-07-06T01:28:50;30.88;;;24.52;;
20348;SDS011;10332;50.208;18.988;2022-07-06T01:31:27;32.33;;;24.73;;
20348;SDS011;10332;50.208;18.988;2022-07-06T01:33:55;30.02;;;22.73;;
20348;SDS011;10332;50.208;18.988;2022-07-06T01:36:24;28.50;;;23.02;;
20348;SDS011;10332;50.208;18.988;2022-07-06T01:38:52;36.03;;;26.38;;
20348;SDS011;10332;50.208;18.988;2022-07-06T01:41:25;32.85;;;25.75;;
20348;SDS011;10332;50.208;18.988;2022-07-06T01:43:52;31.65;;;25.77;;
20348;SDS011;10332;50.208;18.988;2022-07-06T01:46:20;36.75;;;28.00;;
20348;SDS011;10332;50.208;18.988;2022-07-06T01:48:47;30.45;;;24.50;;
20348;SDS011;10332;50.208;18.988;2022-07-06T01:51:15;33.42;;;25.63;;
20348;SDS011;10332;50.208;18.988;2022-07-06T01:53:42;32.05;;;25.58;;
20348;SDS011;10332;50.208;18.988;2022-07-06T01:56:10;35.22;;;27.27;;
20348;SDS011;10332;50.208;18.988;2022-07-06T01:58:38;31.20;;;24.75;;
20348;SDS011;10332;50.208;18.988;2022-07-06T02:01:15;29.65;;;24.25;;
20348;SDS011;10332;50.208;18.988;2022-07-06T02:03:45;29.13;;;23.50;;
20348;SDS011;10332;50.208;18.988;2022-07-06T02:06:13;29.35;;;23.13;;
20348;SDS011;10332;50.208;18.988;2022-07-06T02:08:41;23.83;;;20.17;;
20348;SDS011;10332;50.208;18.988;2022-07-06T02:11:09;27.25;;;23.02;;
20348;SDS011;10332;50.208;18.988;2022-07-06T02:13:37;22.92;;;19.83;;
20348;SDS011;10332;50.208;18.988;2022-07-06T02:16:05;17.67;;;15.32;;
20348;SDS011;10332;50.208;18.988;2022-07-06T02:18:32;16.52;;;13.82;;
20348;SDS011;10332;50.208;18.988;2022-07-06T02:21:00;19.67;;;16.65;;
20348;SDS011;10332;50.208;18.988;2022-07-06T02:23:27;19.27;;;16.15;;
20348;SDS011;10332;50.208;18.988;2022-07-06T02:25:55;28.83;;;24.02;;
20348;SDS011;10332;50.208;18.988;2022-07-06T02:28:22;26.92;;;21.90;;
20348;SDS011;10332;50.208;18.988;2022-07-06T02:30:50;21.88;;;18.23;;
20348;SDS011;10332;50.208;18.988;2022-07-06T02:33:17;23.55;;;19.45;;
20348;SDS011;10332;50.208;18.988;2022-07-06T02:35:45;19.02;;;16.02;;
20348;SDS011;10332;50.208;18.988;2022-07-06T02:38:12;13.45;;;11.73;;
20348;SDS011;10332;50.208;18.988;2022-07-06T02:40:40;31.33;;;23.42;;
20348;SDS011;10332;50.208;18.988;2022-07-06T02:43:07;29.70;;;23.38;;
20348;SDS011;10332;50.208;18.988;2022-07-06T02:45:35;27.25;;;20.58;;
20348;SDS011;10332;50.208;18.988;2022-07-06T02:48:02;17.45;;;15.40;;
20348;SDS011;10332;50.208;18.988;2022-07-06T02:50:30;18.83;;;16.08;;
20348;SDS011;10332;50.208;18.988;2022-07-06T02:52:57;16.05;;;14.10;;
20348;SDS011;10332;50.208;18.988;2022-07-06T02:55:28;22.33;;;19.10;;
20348;SDS011;10332;50.208;18.988;2022-07-06T02:57:55;18.10;;;16.08;;
20348;SDS011;10332;50.208;18.988;2022-07-06T03:00:23;16.20;;;14.48;;
20348;SDS011;10332;50.208;18.988;2022-07-06T03:02:50;18.33;;;16.42;;
20348;SDS011;10332;50.208;18.988;2022-07-06T03:05:18;12.55;;;11.25;;
20348;SDS011;10332;50.208;18.988;2022-07-06T03:07:45;19.52;;;16.63;;
20348;SDS011;10332;50.208;18.988;2022-07-06T03:10:12;25.33;;;21.10;;
20348;SDS011;10332;50.208;18.988;2022-07-06T03:12:40;22.48;;;17.77;;
20348;SDS011;10332;50.208;18.988;2022-07-06T03:15:07;22.58;;;17.50;;
20348;SDS011;10332;50.208;18.988;2022-07-06T03:17:36;23.23;;;18.17;;
20348;SDS011;10332;50.208;18.988;2022-07-06T03:20:05;23.60;;;18.17;;
20348;SDS011;10332;50.208;18.988;2022-07-06T03:22:33;26.02;;;20.27;;
20348;SDS011;10332;50.208;18.988;2022-07-06T03:25:00;23.02;;;17.88;;
20348;SDS011;10332;50.208;18.988;2022-07-06T03:27:27;26.25;;;20.50;;
20348;SDS011;10332;50.208;18.988;2022-07-06T03:29:55;22.98;;;18.60;;
20348;SDS011;10332;50.208;18.988;2022-07-06T03:32:22;19.13;;;16.83;;
20348;SDS011;10332;50.208;18.988;2022-07-06T03:34:49;21.15;;;16.90;;
20348;SDS011;10332;50.208;18.988;2022-07-06T03:37:17;21.70;;;18.55;;
20348;SDS011;10332;50.208;18.988;2022-07-06T03:39:44;22.85;;;18.63;;
20348;SDS011;10332;50.208;18.988;2022-07-06T03:42:11;17.08;;;15.10;;
20348;SDS011;10332;50.208;18.988;2022-07-06T03:44:38;16.42;;;14.65;;
20348;SDS011;10332;50.208;18.988;2022-07-06T03:47:06;21.85;;;17.90;;
20348;SDS011;10332;50.208;18.988;2022-07-06T03:49:34;18.23;;;15.98;;
20348;SDS011;10332;50.208;18.988;2022-07-06T03:52:01;21.77;;;18.42;;
20348;SDS011;10332;50.208;18.988;2022-07-06T03:54:28;21.42;;;17.70;;
20348;SDS011;10332;50.208;18.988;2022-07-06T03:56:57;22.55;;;18.85;;
20348;SDS011;10332;50.208;18.988;2022-07-06T03:59:24;17.10;;;15.23;;
20348;SDS011;10332;50.208;18.988;2022-07-06T04:01:52;25.58;;;20.52;;
20348;SDS011;10332;50.208;18.988;2022-07-06T04:04:19;23.48;;;20.55;;
20348;SDS011;10332;50.208;18.988;2022-07-06T04:06:46;28.05;;;23.30;;
20348;SDS011;10332;50.208;18.988;2022-07-06T04:09:14;25.95;;;22.08;;
20348;SDS011;10332;50.208;18.988;2022-07-06T04:11:41;27.40;;;21.48;;
20348;SDS011;10332;50.208;18.988;2022-07-06T04:14:09;29.65;;;21.13;;
20348;SDS011;10332;50.208;18.988;2022-07-06T04:16:36;32.17;;;20.85;;
20348;SDS011;10332;50.208;18.988;2022-07-06T04:19:04;25.52;;;20.02;;
20348;SDS011;10332;50.208;18.988;2022-07-06T04:21:31;27.42;;;19.95;;
20348;SDS011;10332;50.208;18.988;2022-07-06T04:23:59;33.83;;;20.40;;
20348;SDS011;10332;50.208;18.988;2022-07-06T04:26:26;23.10;;;18.55;;
20348;SDS011;10332;50.208;18.988;2022-07-06T04:28:54;30.17;;;21.17;;
20348;SDS011;10332;50.208;18.988;2022-07-06T04:31:21;27.25;;;21.20;;
20348;SDS011;10332;50.208;18.988;2022-07-06T04:33:49;24.92;;;19.33;;
20348;SDS011;10332;50.208;18.988;2022-07-06T04:36:16;25.98;;;19.38;;
20348;SDS011;10332;50.208;18.988;2022-07-06T04:38:43;27.55;;;20.73;;
20348;SDS011;10332;50.208;18.988;2022-07-06T04:41:14;26.77;;;20.88;;
20348;SDS011;10332;50.208;18.988;2022-07-06T04:43:41;32.38;;;22.40;;
20348;SDS011;10332;50.208;18.988;2022-07-06T04:46:10;30.38;;;22.08;;
20348;SDS011;10332;50.208;18.988;2022-07-06T04:48:38;33.55;;;23.77;;
20348;SDS011;10332;50.208;18.988;2022-07-06T04:51:06;30.63;;;23.77;;
20348;SDS011;10332;50.208;18.988;2022-07-06T04:53:33;29.80;;;22.90;;
20348;SDS011;10332;50.208;18.988;2022-07-06T04:56:01;30.60;;;22.73;;
20348;SDS011;10332;50.208;18.988;2022-07-06T04:58:28;26.95;;;20.85;;
20348;SDS011;10332;50.208;18.988;2022-07-06T05:00:55;30.88;;;22.75;;
20348;SDS011;10332;50.208;18.988;2022-07-06T05:03:23;28.73;;;21.50;;
20348;SDS011;10332;50.208;18.988;2022-07-06T05:05:50;33.70;;;24.98;;
20348;SDS011;10332;50.208;18.988;2022-07-06T05:08:20;30.95;;;22.42;;
20348;SDS011;10332;50.208;18.988;2022-07-06T05:10:49;31.15;;;22.35;;
20348;SDS011;10332;50.208;18.988;2022-07-06T05:13:16;25.92;;;20.23;;
20348;SDS011;10332;50.208;18.988;2022-07-06T05:15:44;31.50;;;22.92;;
20348;SDS011;10332;50.208;18.988;2022-07-06T05:18:11;36.47;;;25.95;;
20348;SDS011;10332;50.208;18.988;2022-07-06T05:20:39;33.13;;;24.00;;
20348;SDS011;10332;50.208;18.988;2022-07-06T05:23:06;43.08;;;30.10;;
20348;SDS011;10332;50.208;18.988;2022-07-06T05:25:34;36.92;;;26.65;;
20348;SDS011;10332;50.208;18.988;2022-07-06T05:28:02;33.20;;;25.15;;
20348;SDS011;10332;50.208;18.988;2022-07-06T05:30:30;39.80;;;27.08;;
20348;SDS011;10332;50.208;18.988;2022-07-06T05:32:57;36.47;;;26.38;;
20348;SDS011;10332;50.208;18.988;2022-07-06T05:35:25;28.92;;;21.40;;
20348;SDS011;10332;50.208;18.988;2022-07-06T05:38:12;25.45;;;19.55;;
20348;SDS011;10332;50.208;18.988;2022-07-06T05:40:39;23.38;;;18.55;;
20348;SDS011;10332;50.208;18.988;2022-07-06T05:43:09;23.45;;;18.55;;
20348;SDS011;10332;50.208;18.988;2022-07-06T05:45:42;24.52;;;18.27;;
20348;SDS011;10332;50.208;18.988;2022-07-06T05:48:09;23.88;;;18.60;;
20348;SDS011;10332;50.208;18.988;2022-07-06T05:50:55;24.55;;;18.45;;
20348;SDS011;10332;50.208;18.988;2022-07-06T05:53:23;21.63;;;17.50;;
20348;SDS011;10332;50.208;18.988;2022-07-06T05:55:50;22.95;;;18.35;;
20348;SDS011;10332;50.208;18.988;2022-07-06T05:58:18;19.92;;;17.35;;
20348;SDS011;10332;50.208;18.988;2022-07-06T06:00:46;21.83;;;16.85;;
20348;SDS011;10332;50.208;18.988;2022-07-06T06:03:13;25.77;;;20.13;;
20348;SDS011;10332;50.208;18.988;2022-07-06T06:05:41;23.73;;;18.52;;
20348;SDS011;10332;50.208;18.988;2022-07-06T06:08:08;22.75;;;18.48;;
20348;SDS011;10332;50.208;18.988;2022-07-06T06:10:36;27.30;;;19.75;;
20348;SDS011;10332;50.208;18.988;2022-07-06T06:13:03;29.48;;;21.80;;
20348;SDS011;10332;50.208;18.988;2022-07-06T06:15:31;26.42;;;20.13;;
20348;SDS011;10332;50.208;18.988;2022-07-06T06:17:58;34.38;;;23.95;;
20348;SDS011;10332;50.208;18.988;2022-07-06T06:20:26;28.60;;;20.77;;
20348;SDS011;10332;50.208;18.988;2022-07-06T06:22:55;30.77;;;22.70;;
20348;SDS011;10332;50.208;18.988;2022-07-06T06:25:29;32.25;;;23.83;;
20348;SDS011;10332;50.208;18.988;2022-07-06T06:28:00;34.13;;;25.60;;
20348;SDS011;10332;50.208;18.988;2022-07-06T06:30:30;34.50;;;25.02;;
20348;SDS011;10332;50.208;18.988;2022-07-06T06:33:10;31.95;;;24.02;;
20348;SDS011;10332;50.208;18.988;2022-07-06T06:35:44;33.22;;;23.48;;
20348;SDS011;10332;50.208;18.988;2022-07-06T06:38:15;31.92;;;23.70;;
20348;SDS011;10332;50.208;18.988;2022-07-06T06:40:45;31.25;;;22.20;;
20348;SDS011;10332;50.208;18.988;2022-07-06T06:43:12;32.35;;;22.52;;
20348;SDS011;10332;50.208;18.988;2022-07-06T06:45:40;31.27;;;23.25;;
20348;SDS011;10332;50.208;18.988;2022-07-06T06:48:07;30.45;;;22.27;;
20348;SDS011;10332;50.208;18.988;2022-07-06T06:50:42;31.20;;;22.52;;
20348;SDS011;10332;50.208;18.988;2022-07-06T06:53:12;35.63;;;25.08;;
20348;SDS011;10332;50.208;18.988;2022-07-06T06:55:39;33.38;;;25.88;;
20348;SDS011;10332;50.208;18.988;2022-07-06T06:58:07;31.13;;;23.83;;
20348;SDS011;10332;50.208;18.988;2022-07-06T07:00:34;29.55;;;22.40;;
20348;SDS011;10332;50.208;18.988;2022-07-06T07:03:02;26.55;;;20.17;;
20348;SDS011;10332;50.208;18.988;2022-07-06T07:05:29;28.15;;;20.30;;
20348;SDS011;10332;50.208;18.988;2022-07-06T07:07:56;27.48;;;20.63;;
20348;SDS011;10332;50.208;18.988;2022-07-06T07:10:30;23.15;;;18.10;;
20348;SDS011;10332;50.208;18.988;2022-07-06T07:12:59;24.23;;;19.30;;
20348;SDS011;10332;50.208;18.988;2022-07-06T07:15:27;22.85;;;18.05;;
20348;SDS011;10332;50.208;18.988;2022-07-06T07:17:54;21.73;;;17.38;;
20348;SDS011;10332;50.208;18.988;2022-07-06T07:20:22;20.25;;;16.60;;
20348;SDS011;10332;50.208;18.988;2022-07-06T07:22:50;21.38;;;17.10;;
20348;SDS011;10332;50.208;18.988;2022-07-06T07:25:17;18.25;;;15.63;;
20348;SDS011;10332;50.208;18.988;2022-07-06T07:27:45;17.63;;;13.95;;
20348;SDS011;10332;50.208;18.988;2022-07-06T07:30:12;23.08;;;18.00;;
20348;SDS011;10332;50.208;18.988;2022-07-06T07:32:39;22.00;;;18.98;;
20348;SDS011;10332;50.208;18.988;2022-07-06T07:35:09;12.23;;;10.95;;
20348;SDS011;10332;50.208;18.988;2022-07-06T07:37:36;13.80;;;11.32;;
20348;SDS011;10332;50.208;18.988;2022-07-06T07:40:04;28.70;;;16.33;;
20348;SDS011;10332;50.208;18.988;2022-07-06T07:42:33;20.52;;;13.75;;
20348;SDS011;10332;50.208;18.988;2022-07-06T07:45:00;13.43;;;12.00;;
20348;SDS011;10332;50.208;18.988;2022-07-06T07:47:27;12.95;;;11.48;;
20348;SDS011;10332;50.208;18.988;2022-07-06T07:49:55;13.70;;;12.40;;
20348;SDS011;10332;50.208;18.988;2022-07-06T07:52:22;13.30;;;12.10;;
20348;SDS011;10332;50.208;18.988;2022-07-06T07:54:49;13.05;;;11.77;;
20348;SDS011;10332;50.208;18.988;2022-07-06T07:57:37;16.10;;;14.40;;
20348;SDS011;10332;50.208;18.988;2022-07-06T08:00:05;11.80;;;10.70;;
20348;SDS011;10332;50.208;18.988;2022-07-06T08:02:34;11.75;;;9.52;;
20348;SDS011;10332;50.208;18.988;2022-07-06T08:05:01;9.82;;;8.93;;
20348;SDS011;10332;50.208;18.988;2022-07-06T08:07:31;9.73;;;8.57;;
20348;SDS011;10332;50.208;18.988;2022-07-06T08:09:58;11.35;;;9.07;;
20348;SDS011;10332;50.208;18.988;2022-07-06T08:12:26;14.20;;;12.43;;
20348;SDS011;10332;50.208;18.988;2022-07-06T08:14:53;7.97;;;7.18;;
20348;SDS011;10332;50.208;18.988;2022-07-06T08:17:20;8.15;;;7.45;;
20348;SDS011;10332;50.208;18.988;2022-07-06T08:19:48;6.75;;;5.90;;
20348;SDS011;10332;50.208;18.988;2022-07-06T08:22:15;7.78;;;4.90;;
20348;SDS011;10332;50.208;18.988;2022-07-06T08:24:42;10.32;;;7.90;;
20348;SDS011;10332;50.208;18.988;2022-07-06T08:27:10;7.88;;;6.30;;
20348;SDS011;10332;50.208;18.988;2022-07-06T08:29:37;7.38;;;5.55;;
20348;SDS011;10332;50.208;18.988;2022-07-06T08:32:05;4.85;;;4.45;;
20348;SDS011;10332;50.208;18.988;2022-07-06T08:34:46;5.93;;;4.15;;
20348;SDS011;10332;50.208;18.988;2022-07-06T08:37:14;4.32;;;3.42;;
20348;SDS011;10332;50.208;18.988;2022-07-06T08:39:41;5.43;;;3.05;;
20348;SDS011;10332;50.208;18.988;2022-07-06T08:42:09;5.25;;;3.85;;
20348;SDS011;10332;50.208;18.988;2022-07-06T08:44:37;5.45;;;4.60;;
20348;SDS011;10332;50.208;18.988;2022-07-06T08:47:05;3.72;;;3.10;;
20348;SDS011;10332;50.208;18.988;2022-07-06T08:49:34;3.28;;;2.97;;
20348;SDS011;10332;50.208;18.988;2022-07-06T08:52:03;4.75;;;3.10;;
20348;SDS011;10332;50.208;18.988;2022-07-06T08:54:32;2.88;;;2.60;;
20348;SDS011;10332;50.208;18.988;2022-07-06T08:57:02;2.95;;;2.40;;
20348;SDS011;10332;50.208;18.988;2022-07-06T08:59:30;3.28;;;2.10;;
20348;SDS011;10332;50.208;18.988;2022-07-06T09:01:58;4.68;;;2.30;;
20348;SDS011;10332;50.208;18.988;2022-07-06T09:04:33;3.67;;;2.45;;
20348;SDS011;10332;50.208;18.988;2022-07-06T09:07:03;3.67;;;2.58;;
20348;SDS011;10332;50.208;18.988;2022-07-06T09:09:31;3.38;;;2.17;;
20348;SDS011;10332;50.208;18.988;2022-07-06T09:11:59;2.67;;;2.28;;
20348;SDS011;10332;50.208;18.988;2022-07-06T09:14:29;2.40;;;2.20;;
20348;SDS011;10332;50.208;18.988;2022-07-06T09:17:04;3.45;;;3.15;;
20348;SDS011;10332;50.208;18.988;2022-07-06T09:19:41;2.97;;;2.67;;
20348;SDS011;10332;50.208;18.988;2022-07-06T09:22:24;4.43;;;2.58;;
20348;SDS011;10332;50.208;18.988;2022-07-06T09:25:02;3.28;;;1.98;;
20348;SDS011;10332;50.208;18.988;2022-07-06T09:27:42;2.42;;;2.13;;
20348;SDS011;10332;50.208;18.988;2022-07-06T09:30:14;2.28;;;1.92;;
20348;SDS011;10332;50.208;18.988;2022-07-06T09:32:47;2.60;;;2.00;;
20348;SDS011;10332;50.208;18.988;2022-07-06T09:35:27;2.30;;;2.10;;
20348;SDS011;10332;50.208;18.988;2022-07-06T09:38:07;3.92;;;3.05;;
20348;SDS011;10332;50.208;18.988;2022-07-06T09:40:42;7.70;;;6.93;;
20348;SDS011;10332;50.208;18.988;2022-07-06T09:43:16;11.50;;;9.70;;
20348;SDS011;10332;50.208;18.988;2022-07-06T09:45:56;2.63;;;2.15;;
20348;SDS011;10332;50.208;18.988;2022-07-06T09:48:25;2.40;;;1.63;;
20348;SDS011;10332;50.208;18.988;2022-07-06T09:50:58;3.50;;;2.15;;
20348;SDS011;10332;50.208;18.988;2022-07-06T09:53:34;8.55;;;4.20;;
20348;SDS011;10332;50.208;18.988;2022-07-06T09:56:02;2.53;;;1.63;;
20348;SDS011;10332;50.208;18.988;2022-07-06T09:58:31;2.25;;;1.30;;
20348;SDS011;10332;50.208;18.988;2022-07-06T10:01:27;1.42;;;1.23;;
20348;SDS011;10332;50.208;18.988;2022-07-06T10:03:56;3.00;;;1.00;;
20348;SDS011;10332;50.208;18.988;2022-07-06T10:06:25;0.90;;;0.90;;
20348;SDS011;10332;50.208;18.988;2022-07-06T10:08:55;2.20;;;1.33;;
20348;SDS011;10332;50.208;18.988;2022-07-06T10:11:26;2.20;;;1.42;;
20348;SDS011;10332;50.208;18.988;2022-07-06T10:13:56;1.98;;;1.73;;
20348;SDS011;10332;50.208;18.988;2022-07-06T10:16:24;2.22;;;1.52;;
20348;SDS011;10332;50.208;18.988;2022-07-06T10:18:52;1.48;;;1.38;;
20348;SDS011;10332;50.208;18.988;2022-07-06T10:21:22;3.38;;;2.30;;
20348;SDS011;10332;50.208;18.988;2022-07-06T10:23:49;3.30;;;3.00;;
20348;SDS011;10332;50.208;18.988;2022-07-06T10:26:18;3.20;;;2.25;;
20348;SDS011;10332;50.208;18.988;2022-07-06T10:28:49;1.38;;;1.05;;
20348;SDS011;10332;50.208;18.988;2022-07-06T10:31:19;1.85;;;1.55;;
20348;SDS011;10332;50.208;18.988;2022-07-06T10:33:48;0.93;;;0.80;;
20348;SDS011;10332;50.208;18.988;2022-07-06T10:36:16;0.75;;;0.75;;
20348;SDS011;10332;50.208;18.988;2022-07-06T10:38:46;2.15;;;1.20;;
20348;SDS011;10332;50.208;18.988;2022-07-06T10:41:17;19.75;;;17.70;;
20348;SDS011;10332;50.208;18.988;2022-07-06T10:43:57;6.50;;;5.57;;
20348;SDS011;10332;50.208;18.988;2022-07-06T10:46:40;1.65;;;1.55;;
20348;SDS011;10332;50.208;18.988;2022-07-06T10:49:16;1.63;;;1.52;;
20348;SDS011;10332;50.208;18.988;2022-07-06T10:52:04;1.35;;;1.25;;
20348;SDS011;10332;50.208;18.988;2022-07-06T10:54:32;2.72;;;2.50;;
20348;SDS011;10332;50.208;18.988;2022-07-06T10:57:08;6.43;;;5.65;;
20348;SDS011;10332;50.208;18.988;2022-07-06T10:59:58;2.08;;;1.85;;
20348;SDS011;10332;50.208;18.988;2022-07-06T11:02:38;1.58;;;1.48;;
20348;SDS011;10332;50.208;18.988;2022-07-06T11:05:13;1.77;;;1.60;;
20348;SDS011;10332;50.208;18.988;2022-07-06T11:08:45;1.13;;;1.00;;
20348;SDS011;10332;50.208;18.988;2022-07-06T11:11:18;2.13;;;1.02;;
20348;SDS011;10332;50.208;18.988;2022-07-06T11:13:59;3.75;;;1.30;;
20348;SDS011;10332;50.208;18.988;2022-07-06T11:19:17;3.08;;;1.77;;
20348;SDS011;10332;50.208;18.988;2022-07-06T11:21:51;1.90;;;1.48;;
20348;SDS011;10332;50.208;18.988;2022-07-06T11:24:20;1.30;;;1.20;;
20348;SDS011;10332;50.208;18.988;2022-07-06T11:26:51;1.75;;;1.60;;
20348;SDS011;10332;50.208;18.988;2022-07-06T11:29:21;1.77;;;1.60;;
20348;SDS011;10332;50.208;18.988;2022-07-06T11:31:51;2.42;;;1.80;;
20348;SDS011;10332;50.208;18.988;2022-07-06T11:34:23;3.30;;;1.90;;
20348;SDS011;10332;50.208;18.988;2022-07-06T11:37:10;5.20;;;4.28;;
20348;SDS011;10332;50.208;18.988;2022-07-06T11:39:40;2.10;;;1.90;;
20348;SDS011;10332;50.208;18.988;2022-07-06T11:42:09;3.20;;;2.20;;
20348;SDS011;10332;50.208;18.988;2022-07-06T11:44:39;2.00;;;1.73;;
20348;SDS011;10332;50.208;18.988;2022-07-06T11:47:08;2.35;;;1.75;;
20348;SDS011;10332;50.208;18.988;2022-07-06T11:49:38;2.03;;;1.38;;
20348;SDS011;10332;50.208;18.988;2022-07-06T11:52:07;2.28;;;1.75;;
20348;SDS011;10332;50.208;18.988;2022-07-06T11:54:38;2.83;;;1.60;;
20348;SDS011;10332;50.208;18.988;2022-07-06T11:57:07;2.50;;;1.88;;
20348;SDS011;10332;50.208;18.988;2022-07-06T11:59:38;2.45;;;1.75;;
20348;SDS011;10332;50.208;18.988;2022-07-06T12:02:09;2.20;;;2.00;;
20348;SDS011;10332;50.208;18.988;2022-07-06T12:04:44;2.28;;;1.80;;
20348;SDS011;10332;50.208;18.988;2022-07-06T12:07:13;2.00;;;1.60;;
20348;SDS011;10332;50.208;18.988;2022-07-06T12:09:44;2.80;;;2.20;;
20348;SDS011;10332;50.208;18.988;2022-07-06T12:12:13;2.55;;;2.35;;
20348;SDS011;10332;50.208;18.988;2022-07-06T12:14:43;1.90;;;1.60;;
20348;SDS011;10332;50.208;18.988;2022-07-06T12:17:14;1.15;;;1.05;;
20348;SDS011;10332;50.208;18.988;2022-07-06T12:19:42;1.60;;;1.13;;
20348;SDS011;10332;50.208;18.988;2022-07-06T12:22:10;2.67;;;1.35;;
20348;SDS011;10332;50.208;18.988;2022-07-06T12:24:41;3.83;;;1.40;;
20348;SDS011;10332;50.208;18.988;2022-07-06T12:27:13;1.58;;;1.40;;
20348;SDS011;10332;50.208;18.988;2022-07-06T12:29:43;3.85;;;1.60;;
20348;SDS011;10332;50.208;18.988;2022-07-06T12:32:18;1.27;;;1.23;;
20348;SDS011;10332;50.208;18.988;2022-07-06T12:35:03;1.50;;;1.40;;
20348;SDS011;10332;50.208;18.988;2022-07-06T12:37:33;1.58;;;1.10;;
20348;SDS011;10332;50.208;18.988;2022-07-06T12:40:01;2.08;;;1.85;;
20348;SDS011;10332;50.208;18.988;2022-07-06T12:42:45;3.67;;;3.35;;
20348;SDS011;10332;50.208;18.988;2022-07-06T12:45:14;4.25;;;3.10;;
20348;SDS011;10332;50.208;18.988;2022-07-06T12:47:56;2.42;;;2.22;;
20348;SDS011;10332;50.208;18.988;2022-07-06T12:50:35;2.28;;;2.10;;
20348;SDS011;10332;50.208;18.988;2022-07-06T12:53:05;3.05;;;1.70;;
20348;SDS011;10332;50.208;18.988;2022-07-06T12:56:11;2.15;;;1.80;;
20348;SDS011;10332;50.208;18.988;2022-07-06T12:58:39;6.05;;;5.30;;
20348;SDS011;10332;50.208;18.988;2022-07-06T13:01:24;2.60;;;2.40;;
20348;SDS011;10332;50.208;18.988;2022-07-06T13:03:56;5.57;;;3.70;;
20348;SDS011;10332;50.208;18.988;2022-07-06T13:06:31;1.70;;;1.60;;
20348;SDS011;10332;50.208;18.988;2022-07-06T13:09:01;3.15;;;1.98;;
20348;SDS011;10332;50.208;18.988;2022-07-06T13:11:28;2.90;;;1.55;;
20348;SDS011;10332;50.208;18.988;2022-07-06T13:13:55;1.73;;;1.63;;
20348;SDS011;10332;50.208;18.988;2022-07-06T13:16:23;1.67;;;1.58;;
20348;SDS011;10332;50.208;18.988;2022-07-06T13:18:56;1.52;;;1.20;;
20348;SDS011;10332;50.208;18.988;2022-07-06T13:21:24;2.28;;;1.63;;
20348;SDS011;10332;50.208;18.988;2022-07-06T13:23:51;1.90;;;1.80;;
20348;SDS011;10332;50.208;18.988;2022-07-06T13:26:18;1.60;;;1.50;;
20348;SDS011;10332;50.208;18.988;2022-07-06T13:28:46;2.63;;;1.58;;
20348;SDS011;10332;50.208;18.988;2022-07-06T13:31:13;3.35;;;1.58;;
20348;SDS011;10332;50.208;18.988;2022-07-06T13:33:40;4.70;;;1.77;;
20348;SDS011;10332;50.208;18.988;2022-07-06T13:36:08;6.10;;;2.45;;
20348;SDS011;10332;50.208;18.988;2022-07-06T13:38:36;3.92;;;1.95;;
20348;SDS011;10332;50.208;18.988;2022-07-06T13:41:03;3.45;;;2.10;;
20348;SDS011;10332;50.208;18.988;2022-07-06T13:43:32;5.28;;;3.28;;
20348;SDS011;10332;50.208;18.988;2022-07-06T13:46:05;2.22;;;1.55;;
20348;SDS011;10332;50.208;18.988;2022-07-06T13:48:34;2.47;;;1.20;;
20348;SDS011;10332;50.208;18.988;2022-07-06T13:51:01;4.13;;;1.70;;
20348;SDS011;10332;50.208;18.988;2022-07-06T13:53:29;6.00;;;1.80;;
20348;SDS011;10332;50.208;18.988;2022-07-06T13:55:58;2.78;;;1.67;;
20348;SDS011;10332;50.208;18.988;2022-07-06T13:58:26;4.43;;;3.47;;
20348;SDS011;10332;50.208;18.988;2022-07-06T14:00:53;6.43;;;2.63;;
20348;SDS011;10332;50.208;18.988;2022-07-06T14:03:21;5.60;;;4.85;;
20348;SDS011;10332;50.208;18.988;2022-07-06T14:05:58;2.42;;;1.50;;
20348;SDS011;10332;50.208;18.988;2022-07-06T14:08:28;1.40;;;1.20;;
20348;SDS011;10332;50.208;18.988;2022-07-06T14:10:56;2.28;;;1.80;;
20348;SDS011;10332;50.208;18.988;2022-07-06T14:13:24;3.22;;;1.88;;
20348;SDS011;10332;50.208;18.988;2022-07-06T14:15:52;2.42;;;1.60;;
20348;SDS011;10332;50.208;18.988;2022-07-06T14:18:20;1.65;;;1.30;;
20348;SDS011;10332;50.208;18.988;2022-07-06T14:20:48;2.22;;;1.75;;
20348;SDS011;10332;50.208;18.988;2022-07-06T14:23:18;1.60;;;1.48;;
20348;SDS011;10332;50.208;18.988;2022-07-06T14:25:46;2.38;;;2.13;;
20348;SDS011;10332;50.208;18.988;2022-07-06T14:28:15;2.25;;;1.60;;
20348;SDS011;10332;50.208;18.988;2022-07-06T14:30:43;1.40;;;1.30;;
20348;SDS011;10332;50.208;18.988;2022-07-06T14:33:12;1.55;;;1.40;;
20348;SDS011;10332;50.208;18.988;2022-07-06T14:35:42;1.92;;;1.40;;
20348;SDS011;10332;50.208;18.988;2022-07-06T14:38:15;4.20;;;2.88;;
20348;SDS011;10332;50.208;18.988;2022-07-06T14:40:43;3.22;;;2.70;;